createdAt,value
2023-12-29T00:00:03.853Z,97852.41
2023-12-29T00:02:34.372Z,97854.50
2023-12-29T00:05:02.604Z,97851.19
2023-12-29T00:07:30.809Z,97861.50
2023-12-29T00:10:00.528Z,97854.97
2023-12-29T00:12:28.783Z,97858.88
2023-12-29T00:14:57.151Z,97860.06
2023-12-29T00:17:25.417Z,97861.56
2023-12-29T00:19:54.804Z,97856.94
2023-12-29T00:22:23.295Z,97859.41
2023-12-29T00:24:51.574Z,97852.97
2023-12-29T00:27:21.110Z,97856.63
2023-12-29T00:29:49.821Z,97855.41
2023-12-29T00:32:18.598Z,97844.97
2023-12-29T00:34:46.963Z,97837.69
2023-12-29T00:37:15.268Z,97836.94
2023-12-29T00:39:44.195Z,97837.72
2023-12-29T00:42:13.288Z,97832.31
2023-12-29T00:44:43.374Z,97842.81
2023-12-29T00:47:11.935Z,97836.50
2023-12-29T00:49:42.093Z,97841.75
2023-12-29T00:52:10.402Z,97845.41
2023-12-29T00:54:38.703Z,97848.56
2023-12-29T00:57:07.362Z,97849.44
2023-12-29T00:59:40.742Z,97849.78
2023-12-29T01:02:11.212Z,97855.94
2023-12-29T01:04:40.881Z,97849.78
2023-12-29T01:07:09.438Z,97851.81
2023-12-29T01:09:41.108Z,97854.91
2023-12-29T01:12:09.456Z,97852.03
2023-12-29T01:14:37.902Z,97857.25
2023-12-29T01:17:06.206Z,97857.75
2023-12-29T01:19:35.998Z,97856.94
2023-12-29T01:22:04.514Z,97848.53
2023-12-29T01:24:40.169Z,97850.25
2023-12-29T01:27:14.000Z,97850.06
2023-12-29T01:29:42.436Z,97847.38
2023-12-29T01:32:11.591Z,97838.28
2023-12-29T01:34:41.396Z,97848.19
2023-12-29T01:37:09.865Z,97843.78
2023-12-29T01:39:40.985Z,97838.38
2023-12-29T01:42:12.150Z,97838.28
2023-12-29T01:44:40.535Z,97826.34
2023-12-29T01:47:17.160Z,97824.53
2023-12-29T01:49:49.445Z,97821.22
2023-12-29T01:52:20.064Z,97819.84
2023-12-29T01:54:54.152Z,97814.34
2023-12-29T01:57:23.483Z,97815.84
2023-12-29T01:59:51.724Z,97813.81
2023-12-29T02:02:20.319Z,97811.56
2023-12-29T02:04:50.345Z,97810.81
2023-12-29T02:07:19.519Z,97806.00
2023-12-29T02:09:48.525Z,97802.69
2023-12-29T02:12:16.805Z,97799.81
2023-12-29T02:14:48.015Z,97813.66
2023-12-29T02:17:25.818Z,97812.22
2023-12-29T02:19:55.604Z,97808.53
2023-12-29T02:22:23.969Z,97805.41
2023-12-29T02:24:53.995Z,97803.00
2023-12-29T02:27:40.058Z,97812.75
2023-12-29T02:30:13.372Z,97799.81
2023-12-29T02:32:45.055Z,97793.38
2023-12-29T02:35:17.462Z,97794.41
2023-12-29T02:37:46.123Z,97792.09
2023-12-29T02:40:17.576Z,97785.78
2023-12-29T02:42:49.863Z,97782.34
2023-12-29T02:45:18.951Z,97775.13
2023-12-29T02:47:47.945Z,97769.44
2023-12-29T02:50:17.636Z,97770.25
2023-12-29T02:52:45.989Z,97761.31
2023-12-29T02:55:15.734Z,97752.59
2023-12-29T02:57:45.367Z,97744.31
2023-12-29T03:00:15.177Z,97767.03
2023-12-29T03:02:45.413Z,97745.41
2023-12-29T03:05:13.821Z,97752.56
2023-12-29T03:07:42.319Z,97760.38
2023-12-29T03:10:11.443Z,97765.56
2023-12-29T03:12:41.074Z,97759.94
2023-12-29T03:15:10.043Z,97760.72
2023-12-29T03:17:38.308Z,97770.94
2023-12-29T03:20:09.128Z,97762.63
2023-12-29T03:22:37.506Z,97756.41
2023-12-29T03:25:06.751Z,97757.63
2023-12-29T03:27:35.035Z,97755.28
2023-12-29T03:30:05.358Z,97751.91
2023-12-29T03:32:33.663Z,97738.16
2023-12-29T03:35:02.219Z,97727.13
2023-12-29T03:37:30.696Z,97728.59
2023-12-29T03:39:58.885Z,97734.88
2023-12-29T03:42:27.107Z,97740.06
2023-12-29T03:44:56.107Z,97735.63
2023-12-29T03:47:25.741Z,97735.94
2023-12-29T03:49:54.085Z,97748.72
2023-12-29T03:52:22.352Z,97760.06
2023-12-29T03:54:50.585Z,97755.28
2023-12-29T03:57:18.784Z,97740.41
2023-12-29T03:59:46.998Z,97733.00
2023-12-29T04:02:15.208Z,97735.25
2023-12-29T04:04:44.758Z,97729.31
2023-12-29T04:07:13.098Z,97730.66
2023-12-29T04:09:41.271Z,97723.94
2023-12-29T04:12:09.905Z,97731.63
2023-12-29T04:14:38.854Z,97716.94
2023-12-29T04:17:15.399Z,97711.91
2023-12-29T04:19:45.231Z,97702.22
2023-12-29T04:22:13.461Z,97707.31
2023-12-29T04:24:41.827Z,97712.13
2023-12-29T04:27:10.231Z,97705.81
2023-12-29T04:29:39.355Z,97701.44
2023-12-29T04:32:08.232Z,97697.22
2023-12-29T04:34:36.562Z,97695.81
2023-12-29T04:37:07.583Z,97686.31
2023-12-29T04:39:35.994Z,97696.72
2023-12-29T04:42:04.690Z,97692.44
2023-12-29T04:44:32.859Z,97707.56
2023-12-29T04:47:01.615Z,97698.53
2023-12-29T04:49:29.867Z,97696.53
2023-12-29T04:51:58.152Z,97706.25
2023-12-29T04:54:27.710Z,97708.44
2023-12-29T04:56:55.896Z,97698.53
2023-12-29T04:59:24.265Z,97706.66
2023-12-29T05:01:52.530Z,97706.75
2023-12-29T05:04:20.839Z,97700.75
2023-12-29T05:06:49.530Z,97699.34
2023-12-29T05:09:17.835Z,97693.94
2023-12-29T05:11:48.189Z,97695.00
2023-12-29T05:14:16.589Z,97700.63
2023-12-29T05:16:45.142Z,97703.03
2023-12-29T05:19:13.446Z,97697.72
2023-12-29T05:21:42.913Z,97698.59
2023-12-29T05:24:11.273Z,97703.72
2023-12-29T05:26:39.529Z,97697.41
2023-12-29T05:29:09.255Z,97702.72
2023-12-29T05:31:37.563Z,97704.22
2023-12-29T05:34:05.910Z,97699.50
2023-12-29T05:36:39.677Z,97708.31
2023-12-29T05:39:08.565Z,97713.94
2023-12-29T05:41:36.973Z,97709.47
2023-12-29T05:44:05.672Z,97708.84
2023-12-29T05:46:35.378Z,97706.16
2023-12-29T05:49:03.989Z,97713.66
2023-12-29T05:51:32.498Z,97717.69
2023-12-29T05:54:00.836Z,97707.16
2023-12-29T05:56:29.153Z,97715.47
2023-12-29T05:58:57.480Z,97707.84
2023-12-29T06:01:26.087Z,97715.25
2023-12-29T06:03:55.872Z,97716.13
2023-12-29T06:06:24.305Z,97717.41
2023-12-29T06:08:52.753Z,97727.50
2023-12-29T06:11:21.866Z,97736.22
2023-12-29T06:13:50.311Z,97731.41
2023-12-29T06:16:22.408Z,97738.72
2023-12-29T06:18:51.047Z,97725.03
2023-12-29T06:21:21.307Z,97726.94
2023-12-29T06:23:50.125Z,97732.16
2023-12-29T06:26:19.017Z,97726.31
2023-12-29T06:28:47.684Z,97738.19
2023-12-29T06:31:16.861Z,97736.81
2023-12-29T06:33:45.700Z,97739.31
2023-12-29T06:36:14.963Z,97732.84
2023-12-29T06:38:49.560Z,97739.44
2023-12-29T06:41:17.934Z,97743.69
2023-12-29T06:43:46.729Z,97732.88
2023-12-29T06:46:15.549Z,97734.50
2023-12-29T06:48:44.233Z,97724.88
2023-12-29T06:51:19.694Z,97731.66
2023-12-29T06:53:49.603Z,97718.97
2023-12-29T06:56:19.005Z,97713.13
2023-12-29T06:58:47.489Z,97725.22
2023-12-29T07:01:16.968Z,97728.00
2023-12-29T07:03:45.794Z,97740.53
2023-12-29T07:06:14.739Z,97734.09
2023-12-29T07:08:43.161Z,97740.25
2023-12-29T07:11:14.043Z,97739.53
2023-12-29T07:13:42.644Z,97738.75
2023-12-29T07:16:11.319Z,97736.13
2023-12-29T07:18:39.809Z,97732.63
2023-12-29T07:21:08.341Z,97725.22
2023-12-29T07:23:36.700Z,97732.69
2023-12-29T07:26:05.742Z,97739.63
2023-12-29T07:28:36.005Z,97737.81
2023-12-29T07:31:05.193Z,97745.03
2023-12-29T07:33:33.928Z,97748.09
2023-12-29T07:36:02.580Z,97743.69
2023-12-29T07:38:30.932Z,97733.25
2023-12-29T07:41:00.045Z,97741.63
2023-12-29T07:43:28.373Z,97741.34
2023-12-29T07:45:58.077Z,97731.19
2023-12-29T07:48:26.493Z,97725.75
2023-12-29T07:50:54.950Z,97730.88
2023-12-29T07:53:23.599Z,97722.34
2023-12-29T07:55:53.446Z,97730.31
2023-12-29T07:58:21.737Z,97736.03
2023-12-29T08:00:50.001Z,97729.50
2023-12-29T08:03:19.672Z,97730.22
2023-12-29T08:05:48.202Z,97743.03
2023-12-29T08:08:16.673Z,97736.84
2023-12-29T08:10:45.385Z,97739.91
2023-12-29T08:13:13.936Z,97749.16
2023-12-29T08:15:42.248Z,97733.69
2023-12-29T08:18:10.693Z,97735.19
2023-12-29T08:20:40.526Z,97740.78
2023-12-29T08:23:08.689Z,97741.88
2023-12-29T08:25:37.989Z,97744.91
2023-12-29T08:28:07.522Z,97743.31
2023-12-29T08:30:38.401Z,97750.13
2023-12-29T08:33:06.869Z,97743.16
2023-12-29T08:35:35.406Z,97746.09
2023-12-29T08:38:05.225Z,97738.44
2023-12-29T08:40:33.459Z,97735.13
2023-12-29T08:43:02.493Z,97741.28
2023-12-29T08:47:59.494Z,97752.13
2023-12-29T08:50:27.877Z,97751.00
2023-12-29T08:52:56.183Z,97758.44
2023-12-29T08:55:25.968Z,97760.72
2023-12-29T08:57:54.206Z,97759.97
2023-12-29T09:00:22.692Z,97763.00
2023-12-29T09:02:51.165Z,97761.00
2023-12-29T09:05:19.630Z,97762.78
2023-12-29T09:07:47.792Z,97769.84
2023-12-29T09:10:16.586Z,97778.84
2023-12-29T09:12:46.448Z,97783.06
2023-12-29T09:15:14.725Z,97789.97
2023-12-29T09:17:42.908Z,97782.25
2023-12-29T09:20:12.597Z,97777.75
2023-12-29T09:22:40.881Z,97781.47
2023-12-29T09:25:10.142Z,97788.34
2023-12-29T09:27:38.743Z,97786.25
2023-12-29T09:30:10.567Z,97774.22
2023-12-29T09:32:38.930Z,97777.59
2023-12-29T09:35:07.851Z,97768.09
2023-12-29T09:37:36.200Z,97774.94
2023-12-29T09:40:04.734Z,97767.84
2023-12-29T09:42:37.701Z,97763.78
2023-12-29T09:45:13.354Z,97768.72
2023-12-29T09:47:44.311Z,97767.31
2023-12-29T09:50:17.040Z,97751.31
2023-12-29T09:52:46.260Z,97751.97
2023-12-29T09:55:15.174Z,97753.41
2023-12-29T09:57:44.985Z,97760.47
2023-12-29T10:00:18.307Z,97767.53
2023-12-29T10:02:46.702Z,97769.31
2023-12-29T10:05:15.467Z,97764.94
2023-12-29T10:07:47.726Z,97760.97
2023-12-29T10:10:18.323Z,97769.06
2023-12-29T10:12:50.375Z,97763.28
2023-12-29T10:15:25.645Z,97761.69
2023-12-29T10:18:03.553Z,97763.56
2023-12-29T10:20:47.125Z,97749.31
2023-12-29T10:23:20.924Z,97752.13
2023-12-29T10:25:50.649Z,97749.41
2023-12-29T10:28:19.660Z,97744.94
2023-12-29T10:30:49.907Z,97748.59
2023-12-29T10:33:23.440Z,97735.06
2023-12-29T10:36:03.821Z,97726.81
2023-12-29T10:38:32.876Z,97734.25
2023-12-29T10:41:14.949Z,97726.94
2023-12-29T10:43:44.824Z,97725.03
2023-12-29T10:46:14.432Z,97722.03
2023-12-29T10:48:42.827Z,97715.63
2023-12-29T10:51:11.113Z,97718.09
2023-12-29T10:53:41.856Z,97715.16
2023-12-29T10:56:22.452Z,97702.63
2023-12-29T10:59:01.292Z,97697.50
2023-12-29T11:01:32.312Z,97695.88
2023-12-29T11:04:02.582Z,97688.22
2023-12-29T11:06:41.345Z,97688.00
2023-12-29T11:09:10.241Z,97681.22
2023-12-29T11:11:39.487Z,97668.50
2023-12-29T11:14:11.956Z,97672.31
2023-12-29T11:16:44.917Z,97664.97
2023-12-29T11:19:15.972Z,97663.91
2023-12-29T11:21:46.760Z,97668.84
2023-12-29T11:24:19.458Z,97670.50
2023-12-29T11:26:52.346Z,97665.84
2023-12-29T11:29:21.731Z,97657.91
2023-12-29T11:31:54.842Z,97652.09
2023-12-29T11:34:31.839Z,97648.00
2023-12-29T11:37:18.765Z,97651.16
2023-12-29T11:39:59.214Z,97653.22
2023-12-29T11:42:35.047Z,97654.84
2023-12-29T11:45:27.038Z,97648.69
2023-12-29T11:47:57.726Z,97635.59
2023-12-29T11:50:34.930Z,97638.66
2023-12-29T11:53:03.755Z,97647.22
2023-12-29T11:55:35.105Z,97641.19
2023-12-29T11:58:05.866Z,97641.53
2023-12-29T12:00:45.764Z,97632.75
2023-12-29T12:03:24.752Z,97631.84
2023-12-29T12:05:57.629Z,97627.06
2023-12-29T12:08:30.771Z,97618.97
2023-12-29T12:11:20.883Z,97609.91
2023-12-29T12:13:49.610Z,97608.75
2023-12-29T12:16:51.380Z,97603.38
2023-12-29T12:19:25.521Z,97603.41
2023-12-29T12:21:57.364Z,97599.94
2023-12-29T12:24:26.931Z,97594.03
2023-12-29T12:26:56.200Z,97590.84
2023-12-29T12:29:24.569Z,97582.81
2023-12-29T12:31:57.350Z,97582.22
2023-12-29T12:34:27.476Z,97589.06
2023-12-29T12:37:00.512Z,97592.38
2023-12-29T12:39:41.785Z,97589.16
2023-12-29T12:42:10.259Z,97587.78
2023-12-29T12:44:43.339Z,97586.16
2023-12-29T12:47:25.150Z,97589.34
2023-12-29T12:49:55.211Z,97588.34
2023-12-29T12:52:24.176Z,97586.50
2023-12-29T12:54:57.131Z,97588.00
2023-12-29T12:57:26.086Z,97587.88
2023-12-29T12:59:56.597Z,97587.13
2023-12-29T13:02:27.093Z,97584.63
2023-12-29T13:04:57.751Z,97585.88
2023-12-29T13:07:26.552Z,97592.16
2023-12-29T13:09:55.258Z,97594.63
2023-12-29T13:12:23.481Z,97591.00
2023-12-29T13:14:52.850Z,97599.06
2023-12-29T13:17:24.048Z,97604.09
2023-12-29T13:20:00.559Z,97607.50
2023-12-29T13:22:29.669Z,97606.81
2023-12-29T13:24:58.148Z,97601.13
2023-12-29T13:27:26.509Z,97601.91
2023-12-29T13:29:55.300Z,97598.72
2023-12-29T13:32:29.307Z,97597.34
2023-12-29T13:35:07.686Z,97607.72
2023-12-29T13:37:46.575Z,97613.72
2023-12-29T13:40:24.944Z,97603.09
2023-12-29T13:43:01.905Z,97602.38
2023-12-29T13:45:32.049Z,97600.13
2023-12-29T13:48:02.967Z,97604.56
2023-12-29T13:50:32.900Z,97597.66
2023-12-29T13:53:00.826Z,97594.84
2023-12-29T13:55:29.480Z,97599.50
2023-12-29T13:57:57.758Z,97592.97
2023-12-29T14:00:29.939Z,97595.94
2023-12-29T14:03:08.659Z,97598.94
2023-12-29T14:05:50.328Z,97603.75
2023-12-29T14:08:25.699Z,97600.53
2023-12-29T14:10:54.495Z,97607.13
2023-12-29T14:13:22.842Z,97603.22
2023-12-29T14:15:52.828Z,97605.38
2023-12-29T14:18:54.567Z,97614.16
2023-12-29T14:21:26.248Z,97617.94
2023-12-29T14:24:10.128Z,97619.09
2023-12-29T14:26:38.878Z,97617.56
2023-12-29T14:29:09.892Z,97614.69
2023-12-29T14:31:40.817Z,97609.41
2023-12-29T14:34:10.517Z,97613.97
2023-12-29T14:36:42.371Z,97615.03
2023-12-29T14:39:12.115Z,97607.81
2023-12-29T14:41:40.953Z,97620.88
2023-12-29T14:44:09.209Z,97617.22
2023-12-29T14:46:38.918Z,97612.91
2023-12-29T14:49:08.503Z,97612.44
2023-12-29T14:51:37.292Z,97609.78
2023-12-29T14:54:06.973Z,97620.81
2023-12-29T14:56:35.243Z,97615.84
2023-12-29T14:59:05.682Z,97618.66
2023-12-29T15:01:35.483Z,97619.75
2023-12-29T15:04:05.230Z,97619.56
2023-12-29T15:06:33.672Z,97622.72
2023-12-29T15:09:01.912Z,97621.31
2023-12-29T15:11:31.520Z,97623.13
2023-12-29T15:13:59.709Z,97615.69
2023-12-29T15:16:27.929Z,97617.78
2023-12-29T15:18:56.268Z,97614.97
2023-12-29T15:21:24.514Z,97616.72
2023-12-29T15:23:52.701Z,97614.75
2023-12-29T15:26:21.067Z,97614.41
2023-12-29T15:28:50.892Z,97608.97
2023-12-29T15:31:19.652Z,97611.06
2023-12-29T15:33:48.161Z,97606.66
2023-12-29T15:36:21.257Z,97607.34
2023-12-29T15:38:49.634Z,97607.81
2023-12-29T15:41:17.964Z,97604.53
2023-12-29T15:43:47.579Z,97602.22
2023-12-29T15:46:18.726Z,97606.91
2023-12-29T15:48:47.242Z,97597.09
2023-12-29T15:51:15.824Z,97602.06
2023-12-29T15:53:44.477Z,97601.94
2023-12-29T15:56:20.535Z,97601.09
2023-12-29T15:58:49.504Z,97602.22
2023-12-29T16:01:27.898Z,97603.41
2023-12-29T16:03:56.857Z,97610.47
2023-12-29T16:06:27.637Z,97610.81
2023-12-29T16:08:57.728Z,97611.28
2023-12-29T16:11:27.918Z,97606.81
2023-12-29T16:13:56.287Z,97612.75
2023-12-29T16:16:28.653Z,97606.66
2023-12-29T16:18:56.959Z,97614.25
2023-12-29T16:21:25.433Z,97605.28
2023-12-29T16:23:53.808Z,97602.69
2023-12-29T16:26:31.039Z,97601.22
2023-12-29T16:29:03.935Z,97607.47
2023-12-29T16:31:34.657Z,97601.38
2023-12-29T16:34:03.094Z,97598.81
2023-12-29T16:36:31.909Z,97594.84
2023-12-29T16:39:00.208Z,97592.03
2023-12-29T16:41:28.431Z,97587.75
2023-12-29T16:43:57.643Z,97589.22
2023-12-29T16:46:25.953Z,97591.38
2023-12-29T16:48:55.726Z,97585.66
2023-12-29T16:51:24.010Z,97582.53
2023-12-29T16:53:52.181Z,97586.47
2023-12-29T16:56:20.408Z,97584.56
2023-12-29T16:58:48.604Z,97592.72
2023-12-29T17:01:18.650Z,97585.72
2023-12-29T17:03:48.469Z,97588.44
2023-12-29T17:06:18.018Z,97586.84
2023-12-29T17:08:46.479Z,97584.91
2023-12-29T17:11:14.806Z,97582.81
2023-12-29T17:13:43.229Z,97580.91
2023-12-29T17:16:13.200Z,97577.56
2023-12-29T17:18:42.918Z,97576.44
2023-12-29T17:21:13.508Z,97564.28
2023-12-29T17:23:44.265Z,97571.13
2023-12-29T17:26:14.959Z,97565.84
2023-12-29T17:28:43.117Z,97565.03
2023-12-29T17:31:11.670Z,97566.31
2023-12-29T17:33:39.985Z,97566.53
2023-12-29T17:36:11.841Z,97563.53
2023-12-29T17:38:42.900Z,97574.69
2023-12-29T17:41:11.307Z,97576.53
2023-12-29T17:43:39.499Z,97566.44
2023-12-29T17:46:08.090Z,97578.44
2023-12-29T17:48:36.469Z,97580.19
2023-12-29T17:51:04.962Z,97571.59
2023-12-29T17:53:33.125Z,97582.56
2023-12-29T17:56:03.489Z,97586.78
2023-12-29T17:58:31.864Z,97571.97
2023-12-29T18:01:00.252Z,97576.59
2023-12-29T18:03:28.530Z,97567.50
2023-12-29T18:05:57.886Z,97579.47
2023-12-29T18:08:26.154Z,97571.09
2023-12-29T18:10:54.634Z,97577.06
2023-12-29T18:13:24.405Z,97579.16
2023-12-29T18:15:52.688Z,97585.31
2023-12-29T18:18:21.081Z,97587.53
2023-12-29T18:20:50.317Z,97584.81
2023-12-29T18:23:18.747Z,97588.78
2023-12-29T18:25:46.907Z,97585.38
2023-12-29T18:28:16.275Z,97587.13
2023-12-29T18:30:46.312Z,97583.88
2023-12-29T18:33:14.673Z,97585.81
2023-12-29T18:35:43.119Z,97588.38
2023-12-29T18:38:11.293Z,97584.84
2023-12-29T18:40:39.772Z,97587.16
2023-12-29T18:43:08.348Z,97588.91
2023-12-29T18:45:36.734Z,97586.31
2023-12-29T18:48:09.141Z,97585.03
2023-12-29T18:50:37.619Z,97583.22
2023-12-29T18:53:08.746Z,97593.19
2023-12-29T18:55:37.125Z,97587.34
2023-12-29T18:58:05.796Z,97595.06
2023-12-29T19:00:34.522Z,97591.06
2023-12-29T19:03:03.525Z,97593.56
2023-12-29T19:05:33.410Z,97591.56
2023-12-29T19:08:01.601Z,97584.06
2023-12-29T19:10:33.524Z,97585.97
2023-12-29T19:13:02.351Z,97582.75
2023-12-29T19:15:30.909Z,97582.34
2023-12-29T19:18:03.418Z,97587.84
2023-12-29T19:20:34.016Z,97584.16
2023-12-29T19:23:02.688Z,97593.81
2023-12-29T19:25:31.714Z,97584.72
2023-12-29T19:28:00.786Z,97578.19
2023-12-29T19:30:29.278Z,97590.03
2023-12-29T19:32:57.612Z,97578.84
2023-12-29T19:35:25.858Z,97587.34
2023-12-29T19:37:55.439Z,97586.22
2023-12-29T19:40:23.695Z,97577.44
2023-12-29T19:42:51.985Z,97580.16
2023-12-29T19:45:21.244Z,97577.25
2023-12-29T19:47:49.515Z,97586.06
2023-12-29T19:50:17.858Z,97590.56
2023-12-29T19:52:46.360Z,97588.28
2023-12-29T19:55:16.740Z,97581.47
2023-12-29T19:57:46.134Z,97583.06
2023-12-29T20:00:15.386Z,97582.44
2023-12-29T20:02:43.802Z,97572.34
2023-12-29T20:05:12.787Z,97578.28
2023-12-29T20:07:41.089Z,97577.47
2023-12-29T20:10:09.586Z,97583.97
2023-12-29T20:12:40.214Z,97576.28
2023-12-29T20:15:10.880Z,97576.41
2023-12-29T20:17:39.518Z,97580.19
2023-12-29T20:20:10.324Z,97577.59
2023-12-29T20:22:38.836Z,97579.13
2023-12-29T20:25:09.274Z,97583.34
2023-12-29T20:27:39.254Z,97573.22
2023-12-29T20:30:09.560Z,97576.31
2023-12-29T20:32:38.244Z,97583.22
2023-12-29T20:35:07.348Z,97582.81
2023-12-29T20:37:35.846Z,97582.59
2023-12-29T20:40:04.797Z,97586.19
2023-12-29T20:42:33.862Z,97584.69
2023-12-29T20:45:04.259Z,97588.59
2023-12-29T20:47:32.543Z,97588.00
2023-12-29T20:50:00.841Z,97587.88
2023-12-29T20:52:29.513Z,97577.50
2023-12-29T20:54:57.957Z,97593.78
2023-12-29T20:57:26.407Z,97580.13
2023-12-29T20:59:54.771Z,97590.31
2023-12-29T21:02:26.390Z,97595.00
2023-12-29T21:04:54.753Z,97589.88
2023-12-29T21:07:23.106Z,97593.69
2023-12-29T21:09:51.854Z,97589.97
2023-12-29T21:12:20.197Z,97592.16
2023-12-29T21:14:48.371Z,97588.91
2023-12-29T21:17:16.685Z,97597.16
2023-12-29T21:19:46.220Z,97592.38
2023-12-29T21:22:14.863Z,97590.56
2023-12-29T21:24:43.071Z,97589.44
2023-12-29T21:27:12.338Z,97588.16
2023-12-29T21:29:41.992Z,97591.13
2023-12-29T21:32:10.190Z,97599.22
2023-12-29T21:34:38.529Z,97603.03
2023-12-29T21:37:08.086Z,97594.41
2023-12-29T21:39:36.700Z,97595.44
2023-12-29T21:42:05.501Z,97600.69
2023-12-29T21:44:33.709Z,97604.34
2023-12-29T21:47:02.209Z,97600.63
2023-12-29T21:49:30.666Z,97600.09
2023-12-29T21:51:59.150Z,97605.09
2023-12-29T21:54:28.962Z,97602.41
2023-12-29T21:57:00.060Z,97605.03
2023-12-29T21:59:28.343Z,97602.50
2023-12-29T22:01:57.360Z,97601.66
2023-12-29T22:04:26.306Z,97596.75
2023-12-29T22:06:54.873Z,97603.03
2023-12-29T22:09:23.746Z,97597.13
2023-12-29T22:11:53.458Z,97596.34
2023-12-29T22:14:21.735Z,97593.72
2023-12-29T22:16:50.290Z,97599.56
2023-12-29T22:19:18.800Z,97609.44
2023-12-29T22:21:48.876Z,97608.97
2023-12-29T22:24:17.273Z,97612.06
2023-12-29T22:26:45.514Z,97609.72
2023-12-29T22:29:15.161Z,97602.72
2023-12-29T22:31:44.648Z,97600.69
2023-12-29T22:34:13.035Z,97602.38
2023-12-29T22:36:41.391Z,97594.81
2023-12-29T22:39:10.628Z,97607.69
2023-12-29T22:41:38.813Z,97606.88
2023-12-29T22:44:07.037Z,97612.09
2023-12-29T22:46:37.545Z,97614.38
2023-12-29T22:49:07.692Z,97603.28
2023-12-29T22:51:36.007Z,97602.13
2023-12-29T22:54:04.551Z,97605.03
2023-12-29T22:56:32.771Z,97604.03
2023-12-29T22:59:01.143Z,97606.66
2023-12-29T23:01:29.547Z,97605.72
2023-12-29T23:03:59.282Z,97601.47
2023-12-29T23:06:27.632Z,97595.19
2023-12-29T23:08:55.896Z,97600.50
2023-12-29T23:11:24.187Z,97608.47
2023-12-29T23:13:52.333Z,97600.44
2023-12-29T23:16:20.576Z,97603.59
2023-12-29T23:18:50.165Z,97599.59
2023-12-29T23:21:20.655Z,97606.88
2023-12-29T23:23:48.964Z,97600.38
2023-12-29T23:26:17.255Z,97595.28
2023-12-29T23:28:45.416Z,97608.25
2023-12-29T23:31:13.809Z,97601.97
2023-12-29T23:33:42.059Z,97608.75
2023-12-29T23:36:10.487Z,97594.75
2023-12-29T23:38:40.435Z,97600.81
2023-12-29T23:41:08.737Z,97594.41
2023-12-29T23:43:37.678Z,97591.34
2023-12-29T23:46:06.257Z,97590.75
2023-12-29T23:48:34.605Z,97590.97
2023-12-29T23:51:02.844Z,97587.91
2023-12-29T23:53:31.090Z,97584.78
2023-12-29T23:56:00.681Z,97575.22
2023-12-29T23:58:29.640Z,97576.56
